Weather observations for the past three days for
Maple Lake, Maple Lake Municipal Airport
Metric (Imperial)
Date Time (cdt) Wind (kph) Vis. (km) Weather Sky Cond. Temperature (ºC) Relative Humidity Wind Chill (°C) Heat Index (°C) Pressure Precipitation (cm)
Air Dwpt 6 hour altimeter (cm) sea level (mb) 1 hr 3 hr 6 hr
Max. Min.
07 03:15 Calm 16.09 Fair CLR -0.4 -4.2 76% 76.02 0.0
07 02:55 Calm 16.09 Fair CLR 0 -3.7 76% 76.02 0.0
07 02:35 Calm 16.09 Fair CLR -0.2 -3.1 81% 76.02 0.0
07 02:15 Calm 16.09 Fair CLR -0.9 -3.1 85% 76.05 0.0
07 01:55 Calm 16.09 Fair CLR -0.5 -3.3 82% 76.05 0.0
07 01:35 Calm 16.09 Fair CLR -0.2 -3.2 80% 76.07 0.0
07 01:15 Calm 16.09 Fair CLR -0.1 -3.5 78% 76.07 0.0
07 00:55 Calm 16.09 Fair CLR 0 -3.2 7.3 0 79% 76.1 0.0
07 00:35 Calm 16.09 Fair CLR 0 -3.5 78% 76.12 0.0
07 00:15 Calm 16.09 Fair CLR 0.4 -3.2 77% 76.12 0.0
06 23:55 Calm 16.09 Fair CLR 1.2 -3.5 71% 76.12 0.0
06 23:35 Calm 16.09 Partly Cloudy SCT070 1.8 -2.7 72% 76.12 0.0
06 23:15 Calm 16.09 Mostly Cloudy BKN070 2.5 -2.5 70% 76.12 0.0
06 22:55 Calm 16.09 Overcast OVC070 3.4 -3.2 62% 76.15 0.0
06 22:35 Calm 16.09 Overcast OVC070 4.5 -3.3 57% 76.15 0.0
06 22:15 Calm 16.09 Overcast OVC070 4.6 -4.2 53% 76.15 0.0
06 21:55 Calm 16.09 Overcast OVC070 4.3 -3.4 58% 76.15 0.0
06 21:35 Calm 16.09 Overcast OVC070 4.5 -3.9 55% 76.15 0.0
06 21:15 Calm 16.09 Overcast OVC070 5.2 -4.7 49% 76.15 0.0
06 20:55 NW 7 16.09 Overcast OVC060 5.7 -5.3 45% 4 76.15 0.0
06 20:35 W 6 16.09 Overcast OVC060 6 -5.2 45% 76.15 0.0
06 20:15 NW 7 16.09 Overcast OVC060 6 -5.7 43% 5 76.15 0.0
06 19:55 NW 9 16.09 Mostly Cloudy BKN060 6.2 -5.5 43% 5 76.15 0.0
06 19:35 NW 9 16.09 Mostly Cloudy BKN060 6.2 -5.6 43% 5 76.17 0.0
06 19:15 W 7 16.09 Overcast OVC050 6.5 -5.8 41% 5 76.17 0.0
06 18:55 W 11 16.09 Overcast OVC050 7.4 -5.9 7.6 5.5 39% 6 76.17 0.0
06 18:35 W 11 16.09 Overcast OVC050 7 -5.9 40% 5 76.2 0.0
06 18:15 W 9 16.09 Overcast OVC050 7.1 -5.3 41% 6 76.2 0.0
06 17:55 W 13 16.09 Overcast OVC050 7.2 -5.3 41% 5 76.2 0.0
06 17:35 W 13 16.09 Overcast OVC050 7.4 -5.5 40% 5 76.2 0.0
06 17:15 W 15 16.09 Overcast OVC050 7.5 -5.6 39% 5 76.2 0.0
06 16:55 W 13 16.09 Overcast OVC055 7.5 -5.4 40% 5 76.2 0.0
06 16:35 NW 15 16.09 Overcast OVC055 7.6 -5.5 39% 5 76.2 0.0
06 16:15 NW 17 16.09 Overcast OVC049 7.4 -5.8 39% 5 76.23 0.0
06 15:55 NW 15 16.09 Overcast OVC049 7.1 -5.4 41% 5 76.23 0.0
06 15:35 NW 9 G 26 16.09 Overcast OVC049 7.1 -5.8 40% 6 76.25 0.0
06 15:15 W 15 16.09 Overcast OVC047 7.1 -5.4 41% 5 76.25 0.0
06 14:55 NW 17 16.09 Overcast OVC047 6.9 -5.7 41% 4 76.25 0.0
06 14:35 NW 15 G 28 16.09 Overcast OVC045 6.9 -5.3 42% 4 76.25 0.0
06 14:15 NW 20 16.09 Overcast OVC045 6.5 -5.3 43% 3 76.25 0.0
06 13:55 NW 13 16.09 Overcast OVC043 6 -5.3 45% 4 76.25 0.0
06 13:35 NW 11 G 26 16.09 Overcast OVC043 5.5 -5.8 44% 3 76.28 0.0
06 13:15 NW 17 16.09 Overcast OVC043 5.9 -5.2 45% 3 76.28 0.0
06 12:55 NW 15 G 28 16.09 Overcast OVC045 5.6 -5.4 5.6 2.5 45% 3 76.28 0.0
06 12:35 NW 17 16.09 Overcast OVC043 5.2 -5.4 47% 2 76.3 0.0
06 12:15 NW 17 16.09 Overcast OVC043 5.1 -5.4 47% 2 76.3 0.0
06 11:55 W 13 16.09 Overcast OVC043 5 -5.3 48% 2 76.33 0.0
06 11:35 NW 11 16.09 Overcast OVC044 4.7 -5.4 48% 2 76.33 0.0
06 11:15 W 17 16.09 Overcast SCT040 BKN045 OVC050 5 -5.4 47% 2 76.33 0.0
06 10:55 NW 22 G 28 16.09 Overcast BKN040 OVC050 4.5 -5.5 49% 1 76.33 0.0
06 10:35 NW 17 16.09 Overcast BKN042 OVC050 4.1 -5.4 50% 1 76.3 0.0
06 10:15 NW 17 16.09 Overcast SCT038 OVC046 3.8 -5.6 51% 0 76.33 0.0
06 09:55 NW 17 16.09 Overcast SCT037 OVC046 3.6 -5.2 53% 0 76.33 0.0
06 09:35 NW 15 16.09 Overcast SCT037 OVC048 3.3 -5.6 52% 0 76.33 0.0
06 09:15 NW 15 16.09 Overcast SCT039 OVC048 3.2 -5.4 54% -0 76.33 0.0
06 08:55 NW 13 16.09 Overcast OVC050 3.2 -5.5 53% 0 76.3 0.0
06 08:35 NW 13 16.09 Overcast OVC050 3 -5.4 54% 0 76.3 0.0
06 08:15 NW 11 16.09 Overcast OVC050 2.8 -5.4 55% 0 76.28 0.0
06 07:55 NW 13 16.09 Overcast OVC050 2.8 -5.3 56% -0 76.25 0.0
06 07:35 NW 13 16.09 Overcast OVC050 2.7 -4.9 58% -0 76.25 0.0
06 07:15 NW 13 16.09 Overcast OVC050 2.6 -5.1 57% -0 76.23 0.0
06 06:55 NW 11 16.09 Overcast OVC050 2.4 -5 2.4 -1.7 59% -0 76.2 0.0
06 06:35 NW 9 16.09 Overcast OVC050 1.4 -4.8 64% -1 76.2 0.0
06 06:15 NW 7 16.09 Overcast OVC050 0.8 -5 66% -1 76.2 0.0
06 05:55 NW 7 16.09 Overcast OVC050 0.7 -5 66% -1 76.2 0.0
06 05:35 W 6 16.09 Overcast OVC050 0.5 -4.7 68% 76.2 0.0
06 05:15 NW 9 16.09 Overcast OVC050 0 -4.5 72% -3 76.17 0.0
06 04:55 Calm 16.09 Partly Cloudy SCT050 -1.4 -4.4 80% 76.17 0.0
06 04:35 Calm 16.09 Fair CLR -0.6 -4.8 74% 76.17 0.0
06 04:15 Calm 16.09 Fair CLR -1 -4.5 77% 76.17 0.0
06 03:55 Calm 16.09 Fair CLR -1.3 -4.6 79% 76.15 0.0
06 03:35 Calm 16.09 Fair CLR -0.8 -4.5 76% 76.12 0.0
06 03:15 Calm 16.09 Fair CLR -0.3 -5.1 70% 76.12 0.0
06 02:55 Calm 16.09 Fair CLR 0.1 -5.1 68% 76.12 0.0
06 02:35 Calm 16.09 Fair CLR 0.1 -5 69% 76.12 0.0
06 02:15 Calm 16.09 Fair CLR 0 -5 69% 76.12 0.0
06 01:55 Calm 16.09 Fair CLR 0 -4.9 70% 76.12 0.0
06 01:35 Calm 16.09 Fair CLR 1 -5 65% 76.12 0.0
06 01:15 NW 6 16.09 Fair CLR 0.9 -5.1 65% 76.12 0.0
06 00:55 NW 6 16.09 Fair CLR 1.3 -5.3 8.1 1.1 62% 76.12 0.0
06 00:35 NW 7 16.09 Fair CLR 1.7 -5.5 59% -0 76.12 0.0
06 00:15 NW 7 16.09 Fair CLR 2.1 -5.5 58% 0 76.1 0.0
05 23:55 N 9 16.09 Fair CLR 2.2 -4.8 60% -0 76.07 0.0
05 23:35 N 11 16.09 Fair CLR 2.6 -5.2 57% -0 76.07 0.0
05 23:15 NW 9 16.09 Fair CLR 2.5 -5.2 57% 0 76.07 0.0
05 22:55 NW 7 16.09 Fair CLR 3 -5.3 55% 1 76.07 0.0
05 22:35 NW 9 16.09 Fair CLR 3.4 -5.2 54% 1 76.05 0.0
05 22:15 NW 7 16.09 Fair CLR 3.4 -5 55% 2 76.05 0.0
05 21:55 NW 9 16.09 Fair CLR 3.6 -5.2 53% 1 76.02 0.0
05 21:35 NW 11 16.09 Fair CLR 4.5 -5.5 49% 2 76.02 0.0
05 21:15 NW 15 16.09 Fair CLR 4.6 -5.4 49% 2 76 0.0
05 20:55 NW 17 G 30 16.09 Partly Cloudy SCT050 5.1 -5.4 47% 2 76 0.0
05 20:35 NW 15 G 28 16.09 Partly Cloudy SCT050 5.8 -5 46% 3 75.97 0.0
05 20:15 NW 17 16.09 Partly Cloudy SCT060 6.5 -5.1 44% 4 75.95 0.0
05 19:55 NW 20 G 28 16.09 Partly Cloudy SCT060 7.2 -5.5 40% 4 75.92 0.0
05 19:35 NW 24 G 35 16.09 Partly Cloudy SCT060 8 -5.8 37% 5 75.92 0.0
05 19:15 NW 22 G 31 16.09 Partly Cloudy SCT060 8 -6.3 36% 5 75.9 0.0
05 18:55 W 20 G 30 16.09 Partly Cloudy SCT055 8.5 -6 10.5 8.4 36% 6 75.87 0.0
05 18:35 NW 22 G 37 16.09 Partly Cloudy SCT055 8.6 -5.9 36% 6 75.87 0.0
05 18:15 NW 22 G 31 16.09 Partly Cloudy SCT060 8.7 -5.8 36% 6 75.87 0.0
05 17:55 NW 26 G 33 16.09 Partly Cloudy SCT070 9.4 -6 33% 6 75.87 0.0
05 17:35 NW 19 G 33 16.09 Mostly Cloudy BKN070 9.3 -6.1 33% 7 75.84 0.0
05 17:15 N 17 G 28 16.09 Mostly Cloudy BKN060 8.8 -5.8 35% 7 75.84 0.0
05 16:55 NW 19 G 33 16.09 Mostly Cloudy BKN060 BKN070 9.2 -6.6 32% 7 75.82 0.0
05 16:35 NW 20 G 39 16.09 Overcast OVC070 9.7 -6.4 32% 7 75.84 0.0
05 16:15 W 15 16.09 Mostly Cloudy BKN060 BKN070 9.5 -5.5 35% 8 75.84 0.0
05 15:55 NW 19 G 26 16.09 Overcast SCT060 OVC070 8.8 -5.6 36% 6 75.87 0.0
05 15:35 NW 20 G 28 16.09 Overcast BKN060 OVC070 9 -5.8 35% 6 75.87 0.0
05 15:15 W 19 G 30 16.09 Overcast BKN060 OVC070 9 -5.8 35% 7 75.87 0.0
05 14:55 NW 17 G 33 16.09 Overcast BKN060 OVC070 9.8 -6.2 32% 8 75.87 0.0
05 14:35 NW 22 G 35 16.09 Overcast BKN060 OVC070 9.1 -5.8 35% 6 75.87 0.0
05 14:15 W 17 G 28 16.09 Overcast BKN060 OVC070 8.6 -6 35% 6 75.87 0.0
05 13:55 NW 17 G 31 16.09 Overcast OVC060 8.7 -6.2 35% 6 75.87 0.0
05 13:35 NW 20 G 26 16.09 Overcast OVC060 8.6 -6.4 34% 6 75.87 0.0
05 13:15 NW 17 G 30 16.09 Overcast OVC060 8.5 -6.2 35% 6 75.87 0.0
05 12:55 W 15 G 28 16.09 Overcast OVC060 8.6 -6.2 8.6 2.8 35% 6 75.87 0.0
05 12:35 NW 17 16.09 Overcast OVC070 8.5 -5.8 36% 6 75.87 0.0
05 12:15 NW 17 16.09 Overcast OVC055 8.4 -6.4 35% 6 75.87 0.0
05 11:55 W 13 G 28 16.09 Overcast OVC055 8.4 -5.4 37% 7 75.87 0.0
05 11:35 NW 22 G 30 16.09 Mostly Cloudy BKN060 BKN065 8 -5.8 37% 5 75.87 0.0
05 11:15 NW 22 G 33 16.09 Partly Cloudy SCT060 SCT070 8.5 -6.1 35% 6 75.87 0.0
05 10:55 NW 20 G 31 16.09 Partly Cloudy SCT050 8.2 -5.5 38% 5 75.87 0.0
05 10:35 NW 19 G 35 16.09 Partly Cloudy SCT050 7.9 -5.4 39% 5 75.87 0.0
05 10:15 NW 15 G 30 16.09 Fair CLR 7.5 -5.6 39% 5 75.87 0.0
05 09:55 W 13 16.09 Fair CLR 7.1 -5.4 41% 5 75.84 0.0
05 09:35 W 13 16.09 Fair CLR 6.6 -5.6 42% 4 75.84 0.0
05 09:15 NW 15 16.09 Fair CLR 6.3 -5.3 44% 4 75.84 0.0
05 08:55 W 7 16.09 Fair CLR 5.4 -5.9 44% 4 75.82 0.0
05 08:35 NW 11 16.09 Fair CLR 4.6 -6.7 44% 2 75.82 0.0
05 08:15 N 15 G 26 16.09 Fair CLR 4.1 -6.7 46% 1 75.79 0.0
05 07:55 N 17 16.09 Fair CLR 4 -6.2 48% 1 75.79 0.0
05 07:35 NW 15 16.09 Fair CLR 3.5 -6.6 48% 0 75.77 0.0
05 07:15 NW 15 16.09 Fair CLR 3.1 -6.1 51% -0 75.74 0.0
05 06:55 NW 13 16.09 Fair CLR 2.7 -5.6 5.5 2 55% -0 75.74 0.0
05 06:35 NW 9 16.09 Fair CLR 2.2 -5 59% -0 75.72 0.0
05 06:15 NW 11 16.09 Fair CLR 2.2 -4.3 63% -1 75.69 0.0
05 05:55 NW 9 16.09 Fair CLR 2 -3.5 67% -0 75.69 0.0
05 05:35 NW 9 16.09 Fair CLR 2.2 -3 69% -0 75.69 0.0
05 05:15 NW 11 16.09 Fair CLR 2.8 -3.2 65% 0 75.69 0.0
05 04:55 NW 15 16.09 Fair CLR 3.3 -3.1 63% 0 75.69 0.0
05 04:35 NW 11 16.09 Partly Cloudy SCT085 3.3 -2.6 66% 1 75.67 0.0
05 04:15 NW 15 16.09 Mostly Cloudy BKN085 3.9 -2.8 62% 1 75.64 0.0
05 03:55 NW 17 16.09 Mostly Cloudy BKN085 4.1 -2.8 61% 1 75.64 0.0
05 03:35 NW 15 16.09 Mostly Cloudy BKN085 4.5 -3 59% 2 75.62 0.0
05 03:15 NW 15 16.09 Partly Cloudy SCT085 4.1 -2.9 61% 1 75.59 0.0
05 02:55 NW 11 16.09 Partly Cloudy SCT085 4.2 -3.3 59% 2 75.59 0.0
05 02:35 W 9 16.09 Partly Cloudy SCT085 4.5 -3.6 56% 3 75.59 0.0
05 02:15 W 7 16.09 Fair CLR 4.2 -3.7 57% 3 75.59 0.0
05 01:55 W 6 16.09 Partly Cloudy SCT080 4.2 -3.8 56% 75.59 0.0
05 01:35 W 6 16.09 Partly Cloudy SCT080 4.7 -3.6 55% 75.59 0.0
05 01:15 W 7 16.09 Fair CLR 5.4 -4.1 51% 4 75.59 0.0
05 00:55 NW 15 16.09 Fair CLR 5.5 -4.3 9.5 5.5 50% 3 75.59 0.0
05 00:35 NW 15 16.09 Fair CLR 5.6 -4.2 50% 3 75.57 0.0
05 00:15 NW 13 16.09 Fair CLR 6 -4.5 47% 4 75.57 0.0
04 23:55 NW 13 16.09 Fair CLR 6.1 -4.4 47% 4 75.57 0.0
04 23:35 NW 11 16.09 Fair CLR 6.6 -4.5 45% 5 75.54 0.0
04 23:15 NW 19 G 28 16.09 Fair CLR 6.8 -4.2 46% 4 75.54 0.0
04 22:55 NW 7 16.09 Fair CLR 6.7 -3 50% 6 75.54 0.0
04 22:35 NW 11 16.09 Fair CLR 7.1 -3.3 48% 5 75.51 0.0
04 22:15 W 11 16.09 Fair CLR 7 -3.1 49% 5 75.51 0.0
04 21:55 NW 11 16.09 Fair CLR 7.5 -3.7 45% 6 75.51 0.0
04 21:35 NW 9 16.09 Fair CLR 7.8 -4.3 42% 6 75.49 0.0
04 21:15 W 11 16.09 Fair CLR 8 -4.7 41% 6 75.46 0.0
04 20:55 NW 11 G 26 16.09 Fair CLR 8.2 -4.9 39% 7 75.46 0.0
04 20:35 NW 11 G 30 16.09 Fair CLR 8.4 -4.9 39% 7 75.44 0.0
04 20:15 NW 19 G 28 16.09 Fair CLR 8.6 -5 38% 6 75.41 0.0
04 19:55 NW 17 16.09 Partly Cloudy SCT070 9 -5.3 36% 7 75.41 0.0
04 19:35 NW 20 G 31 16.09 Partly Cloudy SCT070 9.4 -4.8 37% 7 75.41 0.0
04 19:15 NW 28 G 35 16.09 Partly Cloudy SCT060 9.1 -5.2 36% 6 75.41 0.0
04 18:55 NW 22 G 44 16.09 Partly Cloudy SCT060 9.3 -4.9 14.6 9.3 37% 7 75.39 0.0
04 18:35 NW 30 G 37 16.09 Mostly Cloudy BKN060 10 -4.4 36% 7 75.39 0.0
04 18:15 NW 20 G 44 16.09 Mostly Cloudy BKN060 10.5 -4.4 35% 75.36 0.0
04 17:55 NW 37 G 46 16.09 Overcast and Breezy OVC060 11.6 -5 31% 75.34 0.0
04 17:35 NW 24 G 39 16.09 Overcast OVC060 11.7 -4.1 33% 75.31 0.0
04 17:15 NW 22 G 41 16.09 Overcast OVC060 11.6 -4.6 32% 75.29 0.0
04 16:55 NW 22 G 35 16.09 Mostly Cloudy BKN060 11.8 -4.1 33% 75.29 0.0
04 16:35 NW 30 G 37 16.09 Mostly Cloudy BKN060 12.4 -2.9 35% 75.26 0.0
04 16:15 NW 28 G 43 16.09 Mostly Cloudy BKN060 12.3 -2.7 35% 75.23 0.0
04 15:55 NW 26 G 43 16.09 Overcast OVC060 12.4 -2.5 36% 75.21 0.0
04 15:35 W 24 G 44 16.09 Mostly Cloudy BKN060 13.6 -2.1 34% 75.21 0.0
04 15:15 NW 37 G 48 16.09 Mostly Cloudy and Breezy BKN060 BKN080 13.4 -2 35% 75.21 0.0
04 14:55 NW 31 G 48 16.09 Mostly Cloudy BKN060 BKN080 14.1 -2 33% 75.18 0.0
04 14:35 NW 28 G 44 16.09 Partly Cloudy SCT060 13.8 -1.7 34% 75.16 0.0
04 14:15 NW 33 G 46 16.09 Partly Cloudy and Breezy SCT060 14.4 -1.5 34% 75.13 0.0
04 13:55 NW 26 G 41 16.09 Fair CLR 14.4 -0.9 35% 75.13 0.0
04 13:35 NW 30 G 44 16.09 Fair CLR 14.3 -0.8 36% 75.08 0.0
04 13:15 NW 37 G 46 16.09 Fair and Breezy CLR 14.5 -0.2 37% 75.08 0.0
04 12:55 W 26 G 43 16.09 Fair CLR 14.1 -0.3 15.1 12.9 37% 75.06 0.0
04 12:35 NW 31 G 44 16.09 Fair CLR 14.6 -0.2 37% 75.06 0.0
04 12:15 NW 28 G 50 16.09 Fair CLR 14.4 -0.8 35% 75.03 0.0
04 11:55 W 22 G 44 16.09 Partly Cloudy SCT120 14.4 -1.3 34% 75.01 0.0
04 11:35 W 24 G 39 16.09 Partly Cloudy SCT120 13.7 -2.4 33% 75.01 0.0
04 11:15 NW 31 G 43 16.09 Partly Cloudy SCT120 14.2 -1.1 35% 74.98 0.0
04 10:55 W 24 G 37 16.09 Fair CLR 14.2 -0.1 38% 74.96 0.0
04 10:35 W 24 G 39 16.09 Fair CLR 14.4 1.7 42% 74.96 0.0
04 10:15 W 17 G 33 16.09 Fair CLR 14.8 2.3 43% 74.93 0.0
04 09:55 W 26 G 48 16.09 Fair CLR 14.5 1.9 43% 74.93 0.0
04 09:35 NW 28 G 37 16.09 Fair CLR 14.5 1.4 41% 74.93 0.0
04 09:15 NW 19 G 31 16.09 Fair CLR 14.6 1.8 42% 74.93 0.0
04 08:55 W 15 G 35 16.09 Fair CLR 13.7 1.4 43% 74.9 0.0
04 08:35 NW 20 G 28 16.09 Fair CLR 13 1.5 46% 74.9 0.0
04 08:15 W 19 G 30 16.09 Fair CLR 13.1 1.1 44% 74.9 0.0
04 07:55 NW 22 G 33 16.09 Fair CLR 13 1.1 45% 74.88 0.0
04 07:35 NW 13 G 28 16.09 Fair CLR 13.1 2.6 49% 74.85 0.0
04 07:15 NW 24 G 33 16.09 Fair CLR 13.2 2.4 48% 74.83 0.0
04 06:55 W 17 16.09 Fair CLR 14 2.7 15.5 13 47% 74.8 0.0
04 06:35 W 20 G 35 16.09 Fair CLR 14.3 1.4 42% 74.78 0.0
04 06:15 W 15 G 28 16.09 Fair CLR 14.2 0 38% 74.73 0.0
04 05:55 W 15 G 30 16.09 Fair CLR 14.7 -0.7 35% 74.7 0.0
04 05:35 SW 15 G 35 16.09 Fair CLR 15.5 -1.1 32% 74.68 0.0
04 05:15 SW 17 G 28 16.09 Partly Cloudy SCT110 14.8 -1.5 33% 74.7 0.0
04 04:55 SW 11 16.09 Partly Cloudy SCT110 14 -2 33% 74.7 0.0
04 04:35 S 11 16.09 Partly Cloudy SCT110 13.7 -2.1 34% 74.7 0.0
04 04:15 SW 11 16.09 Fair CLR 13.5 -2.4 33% 74.73 0.0
04 03:55 S 7 16.09 Fair CLR 13.5 -2.6 33% 74.75 0.0
Date Time (cdt) Wind (kph) Vis. (km) Weather Sky Cond. Air Dwpt Max. Min. Relative Humidity Wind Chill (°C) Heat Index (°C) altimeter (cm) sea level (mb) 1 hr 3 hr 6 hr
6 hour
Temperature (ºC) Pressure Precipitation (cm)